Time;durP1;ratioP1;P1;durP2;ratioP2;P2;SDS_P1;SDS_P2;PMS_P1;PMS_P2;Temp;Humidity;BMP_temperature;BMP_pressure;BME280_temperature;BME280_humidity;BME280_pressure;Samples;Min_cycle;Max_cycle;Signal;HPM_P1;HPM_P2
2022/04/22 00:01:00;;;;;;;1.25;0.73;;;19.80;48.30;;;;;;6148470;28;20517;-72
2022/04/22 00:04:01;;;;;;;1.02;0.73;;;19.80;48.30;;;;;;6148481;28;20110;-72
2022/04/22 00:07:02;;;;;;;1.10;0.65;;;19.80;48.30;;;;;;6150776;28;20477;-72
2022/04/22 00:10:05;;;;;;;1.15;0.70;;;19.80;48.30;;;;;;6148254;28;20114;-71
2022/04/22 00:13:05;;;;;;;0.93;0.68;;;19.80;48.40;;;;;;6148363;28;20039;-72
2022/04/22 00:16:06;;;;;;;1.50;0.85;;;19.80;48.50;;;;;;6150412;28;20485;-72
2022/04/22 00:19:07;;;;;;;1.13;0.80;;;19.80;48.30;;;;;;6150033;28;20063;-73
2022/04/22 00:22:07;;;;;;;1.05;0.80;;;19.70;49.00;;;;;;6148051;28;20499;-73
2022/04/22 00:25:10;;;;;;;0.68;0.60;;;19.80;48.40;;;;;;6148352;28;20080;-71
2022/04/22 00:28:11;;;;;;;0.60;0.57;;;19.70;48.20;;;;;;6147707;28;20035;-73
2022/04/22 00:31:13;;;;;;;0.88;0.65;;;19.70;48.20;;;;;;6147915;28;20152;-72
2022/04/22 00:34:13;;;;;;;1.13;0.88;;;19.70;48.30;;;;;;6148003;29;20023;-71
2022/04/22 00:37:14;;;;;;;1.65;0.80;;;19.70;48.30;;;;;;6146702;29;20061;-71
2022/04/22 00:40:15;;;;;;;0.90;0.73;;;19.70;48.30;;;;;;6147659;29;20034;-72
2022/04/22 00:43:19;;;;;;;0.98;0.60;;;19.70;48.30;;;;;;6145872;29;20038;-72
2022/04/22 00:46:20;;;;;;;0.95;0.70;;;19.70;48.30;;;;;;6124064;29;20453;-71
2022/04/22 00:49:20;;;;;;;0.57;0.50;;;19.70;48.30;;;;;;6123947;29;20042;-71
2022/04/22 00:52:21;;;;;;;0.60;0.52;;;19.70;48.30;;;;;;6138796;28;20041;-71
2022/04/22 00:55:22;;;;;;;0.68;0.57;;;19.70;48.20;;;;;;6148038;28;20032;-71
2022/04/22 00:58:23;;;;;;;0.82;0.60;;;19.70;48.30;;;;;;6149483;28;20074;-73
2022/04/22 01:01:24;;;;;;;0.70;0.68;;;19.80;48.40;;;;;;6148923;28;20433;-73
2022/04/22 01:11:03;;;;;;;0.93;0.68;;;19.70;48.30;;;;;;6146481;28;20035;-71
2022/04/22 01:14:06;;;;;;;0.60;0.60;;;19.70;48.20;;;;;;6147369;28;20113;-71
2022/04/22 01:17:06;;;;;;;0.90;0.68;;;19.70;48.20;;;;;;6145395;28;20023;-72
2022/04/22 01:20:07;;;;;;;1.05;0.70;;;19.70;48.20;;;;;;6146721;28;20026;-72
2022/04/22 01:23:07;;;;;;;1.15;0.65;;;19.70;48.20;;;;;;6146688;29;20474;-72
2022/04/22 01:26:09;;;;;;;1.08;0.60;;;19.70;48.30;;;;;;6146774;28;20030;-72
2022/04/22 01:29:09;;;;;;;0.75;0.75;;;19.70;48.30;;;;;;6146921;28;20468;-71
2022/04/22 01:32:10;;;;;;;1.25;0.70;;;19.70;48.30;;;;;;6150718;28;20033;-72
2022/04/22 01:35:10;;;;;;;1.00;0.88;;;19.70;48.20;;;;;;6151912;29;20070;-72
2022/04/22 01:38:11;;;;;;;0.73;0.63;;;19.70;48.30;;;;;;6152131;29;20028;-71
2022/04/22 01:41:11;;;;;;;0.93;0.68;;;19.70;48.30;;;;;;6151518;29;20067;-71
2022/04/22 01:44:12;;;;;;;1.10;0.80;;;19.70;48.20;;;;;;6142551;29;20372;-71
2022/04/22 01:47:12;;;;;;;0.85;0.73;;;19.70;48.30;;;;;;6127941;29;20439;-72
2022/04/22 01:50:13;;;;;;;1.02;0.70;;;19.70;48.20;;;;;;6127765;29;20043;-71
2022/04/22 01:53:13;;;;;;;1.25;0.50;;;19.70;48.20;;;;;;6127370;29;20086;-72
2022/04/22 01:56:14;;;;;;;0.63;0.60;;;19.70;48.20;;;;;;6127732;29;20039;-73
2022/04/22 01:59:15;;;;;;;0.75;0.63;;;19.70;48.20;;;;;;6126644;29;20038;-72
2022/04/22 02:02:17;;;;;;;0.43;0.43;;;19.70;48.20;;;;;;6127865;29;20031;-72
2022/04/22 02:05:17;;;;;;;1.27;0.85;;;19.70;48.20;;;;;;6127350;29;20035;-72
2022/04/22 02:08:20;;;;;;;1.10;0.85;;;19.70;48.20;;;;;;6127237;29;20035;-72
2022/04/22 02:11:20;;;;;;;1.33;0.60;;;19.70;48.20;;;;;;6129415;29;20502;-72
2022/04/22 02:14:21;;;;;;;0.95;0.73;;;19.70;48.20;;;;;;6127131;29;20106;-71
2022/04/22 02:17:21;;;;;;;0.70;0.60;;;19.70;48.20;;;;;;6127048;29;20032;-72
2022/04/22 02:20:22;;;;;;;1.20;0.73;;;19.70;48.20;;;;;;6125720;29;20032;-71
2022/04/22 02:23:23;;;;;;;0.73;0.60;;;19.70;48.20;;;;;;6126897;29;20081;-71
2022/04/22 02:26:23;;;;;;;1.13;0.60;;;19.80;48.30;;;;;;6126870;29;20083;-72
2022/04/22 02:29:24;;;;;;;0.80;0.65;;;19.70;48.20;;;;;;6129921;28;20035;-72
2022/04/22 02:32:25;;;;;;;1.17;0.85;;;19.70;48.20;;;;;;6150531;29;20023;-72
2022/04/22 02:35:25;;;;;;;0.45;0.43;;;19.70;48.20;;;;;;6150512;29;20030;-72
2022/04/22 02:38:28;;;;;;;0.70;0.60;;;19.70;48.20;;;;;;6151257;28;20513;-71
2022/04/22 02:48:06;;;;;;;1.05;0.70;;;19.70;48.20;;;;;;6126220;29;20114;-71
2022/04/22 02:51:07;;;;;;;0.75;0.60;;;19.80;48.30;;;;;;6126396;29;20062;-72
2022/04/22 02:54:07;;;;;;;1.10;0.70;;;19.70;48.20;;;;;;6124188;29;20052;-72
2022/04/22 02:57:09;;;;;;;0.85;0.40;;;19.70;48.20;;;;;;6124421;29;20035;-72
2022/04/22 03:00:12;;;;;;;1.35;0.52;;;19.70;48.20;;;;;;6125889;29;20110;-71
2022/04/22 03:03:13;;;;;;;0.52;0.50;;;19.70;48.30;;;;;;6122181;29;20031;-72
2022/04/22 03:06:13;;;;;;;0.88;0.50;;;19.70;48.20;;;;;;6126086;29;20035;-73
2022/04/22 03:09:14;;;;;;;0.85;0.70;;;19.70;48.90;;;;;;6126370;29;20386;-71
2022/04/22 03:12:15;;;;;;;0.77;0.75;;;19.70;48.20;;;;;;6125789;29;20064;-72
2022/04/22 03:15:16;;;;;;;1.67;0.80;;;19.70;48.20;;;;;;6125794;29;20031;-72
2022/04/22 03:18:17;;;;;;;0.63;0.60;;;19.70;48.20;;;;;;6125950;29;20115;-72
2022/04/22 03:21:17;;;;;;;1.38;0.70;;;19.70;48.20;;;;;;6125507;29;20038;-71
2022/04/22 03:24:18;;;;;;;1.05;0.75;;;19.70;48.20;;;;;;6125521;29;20032;-72
2022/04/22 03:27:18;;;;;;;1.17;0.80;;;19.70;48.20;;;;;;6125397;29;20028;-72
2022/04/22 03:30:19;;;;;;;0.93;0.60;;;19.70;48.20;;;;;;6135651;28;20449;-71
2022/04/22 03:33:20;;;;;;;0.75;0.68;;;19.70;48.20;;;;;;6149018;29;20023;-71
2022/04/22 03:36:20;;;;;;;0.90;0.60;;;19.70;48.20;;;;;;6148948;29;20505;-72
2022/04/22 03:39:21;;;;;;;0.82;0.70;;;19.70;48.20;;;;;;6149212;29;20027;-72
2022/04/22 03:42:21;;;;;;;0.75;0.70;;;19.70;48.20;;;;;;6148872;29;20038;-72
2022/04/22 03:45:22;;;;;;;0.77;0.55;;;19.70;48.20;;;;;;6130031;29;20027;-72
2022/04/22 03:48:22;;;;;;;2.17;0.88;;;19.70;48.20;;;;;;6123474;29;20031;-71
2022/04/22 03:51:23;;;;;;;0.88;0.68;;;19.70;48.20;;;;;;6125090;29;20094;-71
2022/04/22 03:54:25;;;;;;;1.10;0.70;;;19.70;48.10;;;;;;6123861;29;20024;-74
2022/04/22 04:00:49;;;;;;;0.85;0.63;;;19.70;48.20;;;;;;6124745;29;20055;-72
2022/04/22 04:03:50;;;;;;;0.77;0.60;;;19.70;48.20;;;;;;6122386;29;20094;-72
2022/04/22 04:06:51;;;;;;;1.02;0.70;;;19.70;48.20;;;;;;6124534;29;20040;-70
2022/04/22 04:16:29;;;;;;;0.75;0.55;;;19.70;48.20;;;;;;6124271;29;20032;-71
2022/04/22 04:26:09;;;;;;;1.33;0.82;;;19.70;48.10;;;;;;6124598;29;20039;-72
2022/04/22 04:29:09;;;;;;;0.90;0.60;;;19.70;48.10;;;;;;6131967;29;20031;-72
2022/04/22 04:32:10;;;;;;;2.67;0.88;;;19.70;48.10;;;;;;6148259;29;20058;-72
2022/04/22 04:35:10;;;;;;;1.13;0.90;;;19.70;47.90;;;;;;6146857;29;20097;-71
2022/04/22 04:38:11;;;;;;;0.95;0.70;;;19.70;48.00;;;;;;6147203;29;20020;-72
2022/04/22 04:41:13;;;;;;;1.20;0.80;;;19.70;47.90;;;;;;6133826;28;20071;-71
2022/04/22 04:44:13;;;;;;;1.15;0.68;;;19.70;47.90;;;;;;6133523;28;20047;-73
2022/04/22 04:47:15;;;;;;;1.25;0.82;;;19.70;47.90;;;;;;6144111;28;20723;-71
2022/04/22 04:50:15;;;;;;;2.13;0.82;;;19.80;48.10;;;;;;6146178;28;20062;-70
2022/04/22 04:53:16;;;;;;;0.80;0.65;;;19.80;48.00;;;;;;6144895;28;20119;-72
2022/04/22 04:56:17;;;;;;;5.65;0.90;;;19.80;48.20;;;;;;6146764;29;20110;-70
2022/04/22 05:03:14;;;;;;;;;;;19.80;48.00;;;;;;6135869;28;20090;-72
2022/04/22 05:06:15;;;;;;;1.38;0.70;;;19.80;48.20;;;;;;6171154;28;19917;-74
2022/04/22 05:09:16;;;;;;;4.70;0.60;;;19.80;47.90;;;;;;6171026;28;20046;-72
2022/04/22 05:12:16;;;;;;;1.25;0.80;;;19.80;47.90;;;;;;6150016;28;20034;-72
2022/04/22 05:15:18;;;;;;;3.17;0.68;;;19.80;47.80;;;;;;6150169;28;20082;-71
2022/04/22 05:18:18;;;;;;;1.70;0.98;;;19.80;48.00;;;;;;6149880;28;20103;-73
2022/04/22 05:21:18;;;;;;;1.52;0.90;;;19.80;47.90;;;;;;6150590;28;20031;-73
2022/04/22 05:24:20;;;;;;;1.08;0.80;;;19.80;48.00;;;;;;6149795;28;20490;-70
2022/04/22 05:27:20;;;;;;;1.45;1.05;;;19.80;48.00;;;;;;6149561;29;20027;-72
2022/04/22 05:33:40;;;;;;;2.45;1.00;;;19.80;48.20;;;;;;6149575;29;20039;-71
2022/04/22 05:36:41;;;;;;;6.55;1.40;;;19.80;48.20;;;;;;6149638;28;20896;-72
2022/04/22 05:39:43;;;;;;;3.88;1.10;;;19.80;48.30;;;;;;6150142;28;20031;-72
2022/04/22 05:42:45;;;;;;;8.25;1.45;;;19.80;48.50;;;;;;6149660;28;20031;-71
2022/04/22 05:45:46;;;;;;;4.75;1.10;;;19.90;48.50;;;;;;6149622;28;20024;-73
2022/04/22 05:48:46;;;;;;;3.42;1.08;;;19.80;48.50;;;;;;6149386;28;20046;-72
2022/04/22 05:51:47;;;;;;;1.95;1.10;;;19.90;48.40;;;;;;6149663;28;20035;-72
2022/04/22 05:54:47;;;;;;;3.30;1.40;;;19.90;48.50;;;;;;6149150;28;20066;-72
2022/04/22 05:57:48;;;;;;;4.97;1.02;;;19.90;48.40;;;;;;6149140;28;20027;-73
2022/04/22 06:00:49;;;;;;;3.78;1.17;;;19.90;48.40;;;;;;6133387;28;20103;-72
2022/04/22 06:03:50;;;;;;;4.93;1.27;;;19.90;48.30;;;;;;6143420;28;20030;-72
2022/04/22 06:06:50;;;;;;;3.30;1.20;;;19.90;48.30;;;;;;6126668;29;20114;-71
2022/04/22 06:13:10;;;;;;;2.35;1.15;;;19.90;48.30;;;;;;6138337;28;20031;-72
2022/04/22 06:16:11;;;;;;;2.08;1.20;;;19.90;48.30;;;;;;6150624;28;20070;-72
2022/04/22 06:19:11;;;;;;;1.30;0.90;;;19.90;48.30;;;;;;6164935;28;20066;-71
2022/04/22 06:22:12;;;;;;;2.15;1.20;;;19.90;48.40;;;;;;6164229;28;20031;-72
2022/04/22 06:25:12;;;;;;;1.98;1.20;;;20.00;48.20;;;;;;6147191;28;20051;-71
2022/04/22 06:28:13;;;;;;;2.55;1.35;;;20.00;48.10;;;;;;6150054;28;20036;-72
2022/04/22 06:31:14;;;;;;;2.53;1.45;;;20.10;48.00;;;;;;6134222;28;20027;-71
2022/04/22 06:34:14;;;;;;;10.05;1.30;;;20.10;48.20;;;;;;6130442;28;20034;-71
2022/04/22 06:37:15;;;;;;;3.58;1.20;;;20.10;48.30;;;;;;6149135;28;20035;-73
2022/04/22 06:46:57;;;;;;;5.97;1.63;;;20.20;48.20;;;;;;6132613;28;20489;-73
2022/04/22 06:49:58;;;;;;;2.83;1.25;;;20.20;48.20;;;;;;6135168;28;20121;-73
2022/04/22 06:52:58;;;;;;;4.45;1.02;;;20.20;49.00;;;;;;6149145;28;20041;-71
2022/04/22 06:56:01;;;;;;;6.97;1.27;;;20.20;48.10;;;;;;6148457;28;20046;-71
2022/04/22 06:59:02;;;;;;;1.70;1.20;;;20.30;48.40;;;;;;6148391;28;20034;-70
2022/04/22 07:02:02;;;;;;;2.88;1.50;;;20.40;47.80;;;;;;6148284;28;20031;-70
2022/04/22 07:05:03;;;;;;;5.95;1.23;;;20.40;47.80;;;;;;6148468;28;20398;-71
2022/04/22 07:08:06;;;;;;;3.92;1.25;;;20.40;47.80;;;;;;6148281;28;20461;-71
2022/04/22 07:11:08;;;;;;;2.88;1.35;;;20.50;48.00;;;;;;6145465;28;20018;-71
2022/04/22 07:14:09;;;;;;;13.98;1.65;;;20.50;48.00;;;;;;6120283;28;20115;-71
2022/04/22 07:17:11;;;;;;;2.75;1.20;;;20.40;47.70;;;;;;6124070;29;20031;-71
2022/04/22 07:20:13;;;;;;;2.35;1.23;;;20.40;47.60;;;;;;6124801;28;20391;-71
2022/04/22 07:23:14;;;;;;;4.07;1.27;;;20.40;47.70;;;;;;6147610;29;20023;-71
2022/04/22 07:26:18;;;;;;;2.65;1.00;;;20.40;47.50;;;;;;6147984;29;20043;-71
2022/04/22 07:29:20;;;;;;;1.98;1.10;;;20.40;47.60;;;;;;6147207;28;20046;-72
2022/04/22 07:32:21;;;;;;;4.30;1.15;;;20.30;47.50;;;;;;6148384;28;20032;-72
2022/04/22 07:35:22;;;;;;;1.52;1.20;;;20.30;47.60;;;;;;6146949;28;20490;-72
2022/04/22 07:38:24;;;;;;;1.77;0.90;;;20.30;47.70;;;;;;6126221;28;20078;-72
2022/04/22 07:41:29;;;;;;;2.03;1.10;;;20.30;47.80;;;;;;6147393;28;20438;-71
2022/04/22 07:47:49;;;;;;;1.67;1.23;;;20.30;47.80;;;;;;6147586;28;20043;-71
2022/04/22 07:50:50;;;;;;;4.20;1.38;;;20.30;47.90;;;;;;6148078;28;20042;-71
2022/04/22 07:53:51;;;;;;;2.08;1.00;;;20.30;48.00;;;;;;6146731;28;20066;-71
2022/04/22 07:56:52;;;;;;;5.10;1.50;;;20.20;47.90;;;;;;6147586;28;20054;-73
2022/04/22 07:59:53;;;;;;;1.92;1.30;;;20.20;48.00;;;;;;6147767;28;20055;-71
2022/04/22 08:02:53;;;;;;;3.28;1.35;;;20.20;48.00;;;;;;6147725;28;20031;-71
2022/04/22 08:05:54;;;;;;;4.20;2.00;;;20.20;47.20;;;;;;6147534;28;20031;-72
2022/04/22 08:08:54;;;;;;;5.75;2.35;;;20.10;46.50;;;;;;6148342;28;20027;-72
2022/04/22 08:11:55;;;;;;;9.10;2.42;;;20.10;46.40;;;;;;6147525;28;20023;-71
2022/04/22 08:14:57;;;;;;;7.18;2.75;;;20.10;46.20;;;;;;6147564;28;20069;-71
2022/04/22 08:17:58;;;;;;;7.65;3.60;;;20.10;45.90;;;;;;6147356;28;20090;-71
2022/04/22 08:20:58;;;;;;;9.88;4.45;;;20.10;45.80;;;;;;6147728;28;20520;-72
2022/04/22 08:24:00;;;;;;;10.70;3.55;;;20.00;45.60;;;;;;6147298;28;20046;-71
2022/04/22 08:27:00;;;;;;;9.50;4.38;;;20.00;45.40;;;;;;6147070;28;20386;-71
2022/04/22 08:30:01;;;;;;;13.00;3.97;;;20.00;45.40;;;;;;6146945;28;20039;-71
2022/04/22 08:33:02;;;;;;;7.72;3.80;;;20.00;45.50;;;;;;6145678;29;20027;-71
2022/04/22 08:36:03;;;;;;;10.40;4.13;;;20.00;45.70;;;;;;6146935;28;20027;-70
2022/04/22 08:39:05;;;;;;;9.90;4.45;;;20.00;45.60;;;;;;6147052;28;20054;-71
2022/04/22 08:42:05;;;;;;;9.52;4.40;;;20.00;45.40;;;;;;6146839;28;20394;-71
2022/04/22 08:45:07;;;;;;;6.93;3.75;;;19.90;45.60;;;;;;6144839;28;20034;-71
2022/04/22 08:51:27;;;;;;;9.13;4.20;;;20.00;45.60;;;;;;6123639;29;20618;-71
2022/04/22 08:54:29;;;;;;;7.57;3.75;;;20.00;45.40;;;;;;6121362;29;20451;-71
2022/04/22 08:57:29;;;;;;;8.35;3.92;;;20.00;45.70;;;;;;6123367;29;20028;-71
2022/04/22 09:00:35;;;;;;;7.50;3.90;;;20.00;45.60;;;;;;6122779;29;20073;-72
2022/04/22 09:03:36;;;;;;;13.15;4.07;;;20.00;45.80;;;;;;6123263;29;20027;-70
2022/04/22 09:06:37;;;;;;;7.30;3.40;;;20.00;45.70;;;;;;6123036;29;20157;-71
2022/04/22 09:09:40;;;;;;;10.65;3.70;;;20.00;45.90;;;;;;6122919;29;20435;-70
2022/04/22 09:12:50;;;;;;;7.63;3.75;;;20.00;46.00;;;;;;6120875;29;20091;-71
2022/04/22 09:15:51;;;;;;;6.30;3.50;;;20.00;46.10;;;;;;6122965;28;20478;-71
2022/04/22 09:19:01;;;;;;;9.20;3.22;;;20.00;46.10;;;;;;6122810;29;20066;-71
2022/04/22 09:22:02;;;;;;;8.48;3.20;;;20.00;46.00;;;;;;6122801;29;20476;-71
2022/04/22 09:25:05;;;;;;;8.55;3.58;;;20.00;46.10;;;;;;6123153;28;20028;-70
2022/04/22 09:28:07;;;;;;;5.93;2.95;;;20.00;46.10;;;;;;6122490;29;20105;-71
2022/04/22 09:31:08;;;;;;;6.72;2.95;;;20.00;46.20;;;;;;6140266;28;20027;-70
2022/04/22 09:34:09;;;;;;;7.10;2.95;;;20.00;46.20;;;;;;6145995;28;20019;-71
2022/04/22 09:44:13;;;;;;;4.35;2.95;;;20.00;46.30;;;;;;6146942;28;20031;-70
2022/04/22 09:47:14;;;;;;;7.40;3.10;;;20.00;46.50;;;;;;6145851;28;20019;-71
2022/04/22 09:50:18;;;;;;;5.35;2.72;;;20.00;46.40;;;;;;6146844;28;20229;-71
2022/04/22 09:53:32;;;;;;;4.38;2.60;;;20.00;46.50;;;;;;6148519;28;20485;-70
2022/04/22 09:56:34;;;;;;;5.05;2.72;;;20.00;46.50;;;;;;6150490;28;20101;-72
2022/04/22 09:59:35;;;;;;;4.80;2.60;;;20.00;46.60;;;;;;6150432;28;20074;-71
2022/04/22 10:02:36;;;;;;;5.80;2.55;;;20.00;46.70;;;;;;6150880;28;20063;-71
2022/04/22 10:05:36;;;;;;;3.95;2.47;;;20.00;46.70;;;;;;6150124;28;20045;-71
2022/04/22 10:08:37;;;;;;;5.05;2.60;;;20.00;46.70;;;;;;6150286;28;20032;-71
2022/04/22 10:11:39;;;;;;;4.45;2.75;;;20.00;47.50;;;;;;6150189;28;20078;-71
2022/04/22 10:14:42;;;;;;;7.72;2.78;;;20.00;46.70;;;;;;6150779;28;20135;-71
2022/04/22 10:17:44;;;;;;;5.68;2.75;;;20.00;46.80;;;;;;6149783;28;20035;-72
2022/04/22 10:20:47;;;;;;;4.82;2.50;;;20.00;46.90;;;;;;6151181;28;20110;-70
2022/04/22 10:23:50;;;;;;;7.32;2.90;;;20.00;46.80;;;;;;6149543;28;20039;-70
2022/04/22 10:26:52;;;;;;;10.98;3.88;;;20.00;46.60;;;;;;6150553;28;20205;-72
2022/04/22 10:29:53;;;;;;;6.20;3.58;;;20.00;46.40;;;;;;6149231;28;20043;-70
2022/04/22 10:32:55;;;;;;;4.93;3.00;;;20.00;46.20;;;;;;6149551;29;20055;-68
2022/04/22 10:35:59;;;;;;;5.80;3.00;;;20.00;46.60;;;;;;6150873;28;20070;-71
2022/04/22 10:39:03;;;;;;;7.80;2.55;;;20.00;47.00;;;;;;6144891;28;20213;-71
2022/04/22 10:42:14;;;;;;;8.80;2.92;;;20.10;47.60;;;;;;6145750;28;20038;-71
2022/04/22 10:48:41;;;;;;;7.20;2.70;;;20.00;47.60;;;;;;6148986;28;20039;-70
2022/04/22 10:52:09;;;;;;;4.93;2.70;;;20.00;47.40;;;;;;6149279;28;20115;-68
2022/04/22 10:55:10;;;;;;;9.57;3.08;;;20.00;47.20;;;;;;6148878;28;20029;-68
2022/04/22 10:58:13;;;;;;;15.55;2.90;;;20.10;47.20;;;;;;6149440;28;20034;-69
2022/04/22 11:01:29;;;;;;;23.40;3.15;;;20.10;47.30;;;;;;6149316;28;20502;-68
2022/04/22 11:04:31;;;;;;;18.50;3.00;;;20.10;47.20;;;;;;6149313;28;20027;-68
2022/04/22 11:07:50;;;;;;;8.68;2.90;;;20.00;47.10;;;;;;6149012;28;20417;-68
2022/04/22 11:10:53;;;;;;;9.88;2.85;;;20.10;47.20;;;;;;6148677;28;20042;-68
2022/04/22 11:13:54;;;;;;;10.40;3.08;;;20.10;47.20;;;;;;6137835;28;20031;-68
2022/04/22 11:17:15;;;;;;;6.65;2.80;;;20.10;47.20;;;;;;6124973;29;20033;-68
2022/04/22 11:20:16;;;;;;;12.48;3.88;;;20.10;47.20;;;;;;6124532;29;20086;-68
2022/04/22 11:23:16;;;;;;;10.57;5.03;;;20.10;47.40;;;;;;6147577;28;20482;-68
2022/04/22 11:26:17;;;;;;;10.23;5.18;;;20.10;47.50;;;;;;6147474;28;20027;-68
2022/04/22 11:29:17;;;;;;;11.88;6.45;;;20.10;47.50;;;;;;6147921;28;20043;-68
2022/04/22 11:32:26;;;;;;;11.57;5.07;;;20.10;47.60;;;;;;6134594;28;20487;-68
2022/04/22 11:35:33;;;;;;;10.00;4.85;;;20.10;47.60;;;;;;6147851;28;20146;-68
2022/04/22 11:38:34;;;;;;;9.05;4.13;;;20.00;47.50;;;;;;6148314;28;20051;-68
2022/04/22 11:41:34;;;;;;;6.97;4.22;;;20.10;47.60;;;;;;6145560;28;20038;-68
2022/04/22 11:44:35;;;;;;;4.85;4.10;;;20.10;47.60;;;;;;6135375;28;20043;-68
2022/04/22 11:47:36;;;;;;;6.35;4.20;;;20.10;47.60;;;;;;6145125;28;20349;-68
2022/04/22 11:50:47;;;;;;;5.57;3.78;;;20.10;47.60;;;;;;6148221;28;20467;-68
2022/04/22 11:53:49;;;;;;;9.13;3.90;;;20.10;47.60;;;;;;6144552;28;20460;-68
2022/04/22 11:56:50;;;;;;;5.88;3.30;;;20.10;47.60;;;;;;6124189;29;20031;-68
2022/04/22 12:05:32;;;;;;;6.32;3.58;;;20.10;47.60;;;;;;6142959;28;20062;-68
2022/04/22 12:06:31;;;;;;;8.02;3.72;;;20.10;47.70;;;;;;6148028;28;20027;-68
2022/04/22 12:09:31;;;;;;;5.55;3.40;;;20.00;47.60;;;;;;6147704;28;20043;-68
2022/04/22 12:12:32;;;;;;;6.90;3.65;;;20.00;47.60;;;;;;6147110;28;20175;-68
2022/04/22 12:15:39;;;;;;;7.15;3.80;;;20.00;47.70;;;;;;6145265;28;20471;-69
2022/04/22 12:18:41;;;;;;;5.28;3.40;;;20.00;47.80;;;;;;6162477;28;20031;-68
2022/04/22 12:21:41;;;;;;;4.90;3.20;;;20.00;47.70;;;;;;6171036;28;20492;-68
2022/04/22 12:25:08;;;;;;;5.60;3.55;;;20.00;47.70;;;;;;6170675;28;20031;-68
2022/04/22 12:28:13;;;;;;;6.35;3.10;;;20.00;47.80;;;;;;6150151;28;20027;-68
2022/04/22 12:31:21;;;;;;;5.70;3.20;;;20.00;47.80;;;;;;6146675;28;20512;-68
2022/04/22 12:34:30;;;;;;;4.60;3.08;;;20.00;47.90;;;;;;6146208;28;20130;-69
2022/04/22 12:37:31;;;;;;;4.53;2.75;;;20.00;47.90;;;;;;6127938;28;20024;-68
2022/04/22 12:40:49;;;;;;;5.25;3.20;;;20.00;47.90;;;;;;6137693;28;20035;-68
2022/04/22 12:43:53;;;;;;;4.53;3.00;;;20.00;48.00;;;;;;6157174;28;20059;-68
2022/04/22 12:53:50;;;;;;;4.90;2.92;;;20.00;48.00;;;;;;6146161;28;20031;-68
2022/04/22 12:56:54;;;;;;;4.40;2.85;;;20.00;48.10;;;;;;6146419;28;20030;-68
2022/04/22 12:59:56;;;;;;;4.80;2.80;;;19.90;47.90;;;;;;6146508;28;20051;-69
2022/04/22 13:03:03;;;;;;;3.92;2.95;;;20.00;48.00;;;;;;6145945;28;20030;-69
2022/04/22 13:06:05;;;;;;;4.47;2.80;;;19.90;47.90;;;;;;6146659;28;20050;-68
2022/04/22 13:09:07;;;;;;;4.45;3.08;;;19.90;48.00;;;;;;6146275;28;20085;-68
2022/04/22 13:12:08;;;;;;;4.75;2.50;;;19.90;48.10;;;;;;6146560;28;20698;-68
2022/04/22 13:15:12;;;;;;;4.90;2.85;;;19.90;48.00;;;;;;6135620;28;20150;-69
2022/04/22 13:18:13;;;;;;;4.30;2.95;;;19.90;48.00;;;;;;6145114;28;20110;-69
2022/04/22 13:21:13;;;;;;;4.07;2.80;;;19.90;48.10;;;;;;6145785;28;20032;-68
2022/04/22 13:24:14;;;;;;;5.18;2.70;;;19.90;48.10;;;;;;6146417;28;20082;-68
2022/04/22 13:27:15;;;;;;;3.85;2.78;;;19.90;48.10;;;;;;6150604;28;20494;-68
2022/04/22 13:30:15;;;;;;;3.63;2.67;;;19.90;48.10;;;;;;6150594;29;20047;-68
2022/04/22 13:33:16;;;;;;;4.25;2.70;;;19.90;48.10;;;;;;6150648;28;20031;-68
2022/04/22 13:36:17;;;;;;;4.53;2.80;;;19.90;48.10;;;;;;6150540;28;20042;-68
2022/04/22 13:39:17;;;;;;;3.63;2.58;;;19.90;48.20;;;;;;6149964;28;20026;-68
2022/04/22 13:42:18;;;;;;;5.80;2.70;;;19.90;48.10;;;;;;6150552;28;20038;-68
2022/04/22 13:55:16;;;;;;;4.65;3.20;;;19.90;48.10;;;;;;6146619;28;20031;-68
2022/04/22 13:58:17;;;;;;;4.28;3.25;;;19.90;48.10;;;;;;6149584;28;20502;-69
2022/04/22 14:01:18;;;;;;;4.45;3.47;;;19.90;47.80;;;;;;6149730;28;20047;-68
2022/04/22 14:04:19;;;;;;;6.00;3.88;;;19.90;47.90;;;;;;6149326;28;20565;-69
2022/04/22 14:07:19;;;;;;;6.88;4.10;;;19.90;47.80;;;;;;6140226;28;20509;-68
2022/04/22 14:10:20;;;;;;;5.47;4.22;;;19.90;47.80;;;;;;6143247;28;20066;-68
2022/04/22 14:13:21;;;;;;;6.75;4.20;;;19.90;47.60;;;;;;6149210;28;20031;-68
2022/04/22 14:16:21;;;;;;;9.98;4.50;;;19.90;47.60;;;;;;6149089;28;20103;-69
2022/04/22 14:19:22;;;;;;;6.75;4.22;;;19.90;47.40;;;;;;6149201;28;20063;-68
2022/04/22 14:22:22;;;;;;;7.25;5.00;;;19.90;47.50;;;;;;6164509;28;20482;-68
2022/04/22 14:25:23;;;;;;;8.43;4.93;;;19.90;47.50;;;;;;6172880;28;20521;-68
2022/04/22 14:28:25;;;;;;;8.40;4.80;;;19.90;47.50;;;;;;6172582;28;20023;-69
2022/04/22 14:31:25;;;;;;;7.55;4.05;;;19.90;48.00;;;;;;6153088;28;20025;-69
2022/04/22 14:34:26;;;;;;;8.77;4.60;;;19.90;47.30;;;;;;6148062;28;20032;-69
2022/04/22 14:37:28;;;;;;;8.15;4.47;;;19.90;47.90;;;;;;6148557;28;20031;-68
2022/04/22 14:40:28;;;;;;;9.27;4.70;;;19.90;47.20;;;;;;6141785;29;20023;-68
2022/04/22 14:43:29;;;;;;;9.05;5.05;;;19.90;47.10;;;;;;6128456;29;20023;-69
2022/04/22 14:46:30;;;;;;;7.03;4.85;;;19.90;47.10;;;;;;6148079;28;20019;-69
2022/04/22 14:49:32;;;;;;;7.53;4.47;;;19.90;47.10;;;;;;6148461;28;20387;-68
2022/04/22 14:52:32;;;;;;;6.93;4.32;;;19.90;47.20;;;;;;6147939;28;20027;-68
2022/04/22 14:55:35;;;;;;;10.70;4.82;;;19.90;47.20;;;;;;6148387;28;20034;-68
2022/04/22 14:58:36;;;;;;;6.57;4.35;;;19.90;47.30;;;;;;6148156;28;20401;-68
2022/04/22 15:01:37;;;;;;;10.27;4.90;;;19.90;47.20;;;;;;6148749;28;20055;-68
2022/04/22 15:04:37;;;;;;;11.40;4.38;;;19.90;47.20;;;;;;6148163;28;20493;-68
2022/04/22 15:07:38;;;;;;;7.50;4.80;;;19.90;47.30;;;;;;6141570;28;20435;-68
2022/04/22 15:10:39;;;;;;;9.10;4.50;;;19.90;47.20;;;;;;6163636;28;20107;-68
2022/04/22 15:13:39;;;;;;;7.97;4.47;;;19.90;47.30;;;;;;6162072;28;20058;-68
2022/04/22 15:16:40;;;;;;;9.02;4.22;;;19.90;47.30;;;;;;6148198;28;20027;-68
2022/04/22 15:26:19;;;;;;;7.63;4.07;;;19.90;46.90;;;;;;6151491;28;20042;-68
2022/04/22 15:29:20;;;;;;;6.05;4.05;;;19.90;46.80;;;;;;6166591;28;20054;-68
2022/04/22 15:32:21;;;;;;;7.22;4.25;;;19.90;46.70;;;;;;6147424;29;20031;-68
2022/04/22 15:35:21;;;;;;;5.95;3.67;;;19.90;46.70;;;;;;6146773;28;20043;-68
2022/04/22 15:38:22;;;;;;;10.05;4.05;;;19.90;46.80;;;;;;6147293;28;20078;-68
2022/04/22 15:41:29;;;;;;;6.80;3.58;;;19.90;46.90;;;;;;6146033;28;20035;-69
2022/04/22 15:44:31;;;;;;;8.63;4.18;;;19.90;46.80;;;;;;6147131;28;20455;-68
2022/04/22 15:47:31;;;;;;;9.60;3.75;;;19.90;46.70;;;;;;6126611;28;20028;-68
2022/04/22 15:50:33;;;;;;;7.15;3.70;;;19.90;46.80;;;;;;6123510;29;20529;-68
2022/04/22 15:53:35;;;;;;;10.43;3.15;;;19.90;46.80;;;;;;6123584;29;20526;-68
2022/04/22 15:56:36;;;;;;;10.23;3.90;;;19.90;46.70;;;;;;6124136;28;20035;-68
2022/04/22 15:59:37;;;;;;;7.35;4.22;;;19.90;46.70;;;;;;6123853;29;20050;-68
2022/04/22 16:02:37;;;;;;;6.10;3.55;;;19.90;46.60;;;;;;6148306;28;20497;-68
2022/04/22 16:05:43;;;;;;;11.07;3.88;;;19.90;46.50;;;;;;6170023;28;20552;-68
2022/04/22 16:08:44;;;;;;;5.93;4.13;;;19.90;46.70;;;;;;6171616;28;20466;-69
2022/04/22 16:15:16;;;;;;;7.88;3.95;;;19.90;46.60;;;;;;6137147;28;20036;-69
2022/04/22 16:18:22;;;;;;;6.63;3.65;;;19.90;46.70;;;;;;6121548;29;20031;-68
2022/04/22 16:21:22;;;;;;;8.27;4.05;;;19.90;46.70;;;;;;6123785;29;20439;-68
2022/04/22 16:24:24;;;;;;;10.70;4.28;;;19.90;46.80;;;;;;6144535;28;20027;-70
2022/04/22 16:27:26;;;;;;;6.60;4.18;;;19.90;46.60;;;;;;6145212;28;20038;-68
2022/04/22 16:30:26;;;;;;;5.35;3.70;;;19.90;46.60;;;;;;6156610;28;20448;-68
2022/04/22 16:33:27;;;;;;;9.70;4.32;;;19.90;46.50;;;;;;6135583;28;20042;-68
2022/04/22 16:36:27;;;;;;;7.43;3.97;;;19.90;46.40;;;;;;6145142;28;20071;-68
2022/04/22 16:39:28;;;;;;;11.18;3.80;;;19.90;46.40;;;;;;6145435;28;20035;-68
2022/04/22 16:42:28;;;;;;;10.90;4.07;;;19.90;46.30;;;;;;6145276;28;20161;-68
2022/04/22 16:45:29;;;;;;;5.13;3.63;;;19.90;46.30;;;;;;6125411;28;20027;-68
2022/04/22 16:48:30;;;;;;;5.35;3.65;;;19.90;45.90;;;;;;6127484;28;20166;-68
2022/04/22 16:51:30;;;;;;;7.43;3.90;;;19.90;46.10;;;;;;6145354;28;20031;-68
2022/04/22 16:54:30;;;;;;;8.13;3.42;;;19.80;46.10;;;;;;6145169;28;20504;-68
2022/04/22 16:57:31;;;;;;;6.78;3.42;;;19.90;46.20;;;;;;6145094;28;20030;-68
2022/04/22 17:00:32;;;;;;;4.60;3.53;;;19.90;46.10;;;;;;6144561;28;20563;-68
2022/04/22 17:03:33;;;;;;;5.65;3.47;;;19.90;46.00;;;;;;6143569;28;20032;-68
2022/04/22 17:06:33;;;;;;;5.03;3.13;;;19.90;45.90;;;;;;6151045;28;20082;-68
2022/04/22 17:09:34;;;;;;;8.45;3.58;;;19.80;45.50;;;;;;6149631;28;20057;-68
2022/04/22 17:12:34;;;;;;;7.85;2.90;;;19.90;45.80;;;;;;6149412;28;20091;-68
2022/04/22 17:25:33;;;;;;;7.97;2.70;;;19.90;45.60;;;;;;6144030;29;20031;-68
2022/04/22 17:28:34;;;;;;;3.53;2.58;;;19.80;45.30;;;;;;6149152;29;20601;-68